sensor_id;sensor_type;location;lat;lon;timestamp;temperature;humidity
44305;DHT22;30019;50.576;8.568;2023-04-24T00:00:24;10.30;99.90
44305;DHT22;30019;50.576;8.568;2023-04-24T00:02:49;10.30;99.90
44305;DHT22;30019;50.576;8.568;2023-04-24T00:05:15;10.30;99.90
44305;DHT22;30019;50.576;8.568;2023-04-24T00:07:43;10.30;99.90
44305;DHT22;30019;50.576;8.568;2023-04-24T00:10:09;10.30;99.90
44305;DHT22;30019;50.576;8.568;2023-04-24T00:12:35;10.30;99.90
44305;DHT22;30019;50.576;8.568;2023-04-24T00:15:00;10.40;99.90
44305;DHT22;30019;50.576;8.568;2023-04-24T00:17:26;10.40;99.90
44305;DHT22;30019;50.576;8.568;2023-04-24T00:19:52;10.40;99.90
44305;DHT22;30019;50.576;8.568;2023-04-24T00:22:24;10.50;99.90
44305;DHT22;30019;50.576;8.568;2023-04-24T00:24:50;10.50;99.90
44305;DHT22;30019;50.576;8.568;2023-04-24T00:27:16;10.50;99.90
44305;DHT22;30019;50.576;8.568;2023-04-24T00:29:41;10.50;99.90
44305;DHT22;30019;50.576;8.568;2023-04-24T00:32:07;10.50;99.90
44305;DHT22;30019;50.576;8.568;2023-04-24T00:34:32;10.60;99.90
44305;DHT22;30019;50.576;8.568;2023-04-24T00:36:58;10.50;99.90
44305;DHT22;30019;50.576;8.568;2023-04-24T00:39:23;10.50;99.90
44305;DHT22;30019;50.576;8.568;2023-04-24T00:41:49;10.50;99.90
44305;DHT22;30019;50.576;8.568;2023-04-24T00:44:16;10.50;99.90
44305;DHT22;30019;50.576;8.568;2023-04-24T00:46:42;10.50;99.90
44305;DHT22;30019;50.576;8.568;2023-04-24T00:49:08;10.60;99.90
44305;DHT22;30019;50.576;8.568;2023-04-24T00:51:34;10.60;99.90
44305;DHT22;30019;50.576;8.568;2023-04-24T00:54:00;10.60;99.90
44305;DHT22;30019;50.576;8.568;2023-04-24T00:56:26;10.70;99.90
44305;DHT22;30019;50.576;8.568;2023-04-24T00:58:52;10.70;99.90
44305;DHT22;30019;50.576;8.568;2023-04-24T01:01:21;10.70;99.90
44305;DHT22;30019;50.576;8.568;2023-04-24T01:03:49;10.70;99.90
44305;DHT22;30019;50.576;8.568;2023-04-24T01:06:15;10.70;99.90
44305;DHT22;30019;50.576;8.568;2023-04-24T01:08:41;10.70;99.90
44305;DHT22;30019;50.576;8.568;2023-04-24T01:11:07;10.70;99.90
44305;DHT22;30019;50.576;8.568;2023-04-24T01:13:34;10.70;99.90
44305;DHT22;30019;50.576;8.568;2023-04-24T01:16:00;10.70;99.90
44305;DHT22;30019;50.576;8.568;2023-04-24T01:18:26;10.70;99.90
44305;DHT22;30019;50.576;8.568;2023-04-24T01:20:53;10.70;99.90
44305;DHT22;30019;50.576;8.568;2023-04-24T01:23:20;10.70;99.90
44305;DHT22;30019;50.576;8.568;2023-04-24T01:25:45;10.70;99.90
44305;DHT22;30019;50.576;8.568;2023-04-24T01:28:11;10.70;99.90
44305;DHT22;30019;50.576;8.568;2023-04-24T01:30:39;10.70;99.90
44305;DHT22;30019;50.576;8.568;2023-04-24T01:33:05;10.70;99.90
44305;DHT22;30019;50.576;8.568;2023-04-24T01:35:31;10.70;99.90
44305;DHT22;30019;50.576;8.568;2023-04-24T01:37:56;10.70;99.90
44305;DHT22;30019;50.576;8.568;2023-04-24T01:40:22;10.70;99.90
44305;DHT22;30019;50.576;8.568;2023-04-24T01:42:48;10.70;99.90
44305;DHT22;30019;50.576;8.568;2023-04-24T01:45:13;10.70;99.90
44305;DHT22;30019;50.576;8.568;2023-04-24T01:47:39;10.70;99.90
44305;DHT22;30019;50.576;8.568;2023-04-24T01:50:06;10.70;99.90
44305;DHT22;30019;50.576;8.568;2023-04-24T01:52:31;10.70;99.90
44305;DHT22;30019;50.576;8.568;2023-04-24T01:55:03;10.70;99.90
44305;DHT22;30019;50.576;8.568;2023-04-24T01:57:30;10.60;99.90
44305;DHT22;30019;50.576;8.568;2023-04-24T01:59:56;10.60;99.90
44305;DHT22;30019;50.576;8.568;2023-04-24T02:02:22;10.50;99.90
44305;DHT22;30019;50.576;8.568;2023-04-24T02:04:49;10.50;99.90
44305;DHT22;30019;50.576;8.568;2023-04-24T02:07:15;10.40;99.90
44305;DHT22;30019;50.576;8.568;2023-04-24T02:09:41;10.40;99.90
44305;DHT22;30019;50.576;8.568;2023-04-24T02:12:06;10.40;99.90
44305;DHT22;30019;50.576;8.568;2023-04-24T02:14:32;10.30;99.90
44305;DHT22;30019;50.576;8.568;2023-04-24T02:16:58;10.30;99.90
44305;DHT22;30019;50.576;8.568;2023-04-24T02:19:23;10.30;99.90
44305;DHT22;30019;50.576;8.568;2023-04-24T02:21:49;10.30;99.90
44305;DHT22;30019;50.576;8.568;2023-04-24T02:24:14;10.20;99.90
44305;DHT22;30019;50.576;8.568;2023-04-24T02:26:41;10.20;99.90
44305;DHT22;30019;50.576;8.568;2023-04-24T02:29:06;10.20;99.90
44305;DHT22;30019;50.576;8.568;2023-04-24T02:31:32;10.20;99.90
44305;DHT22;30019;50.576;8.568;2023-04-24T02:33:57;10.10;99.90
44305;DHT22;30019;50.576;8.568;2023-04-24T02:36:23;10.10;99.90
44305;DHT22;30019;50.576;8.568;2023-04-24T02:38:48;10.10;99.90
44305;DHT22;30019;50.576;8.568;2023-04-24T02:41:14;10.10;99.90
44305;DHT22;30019;50.576;8.568;2023-04-24T02:43:40;10.10;99.90
44305;DHT22;30019;50.576;8.568;2023-04-24T02:46:05;10.00;99.90
44305;DHT22;30019;50.576;8.568;2023-04-24T02:48:31;10.00;99.90
44305;DHT22;30019;50.576;8.568;2023-04-24T02:50:56;10.00;99.90
44305;DHT22;30019;50.576;8.568;2023-04-24T02:53:23;9.90;99.90
44305;DHT22;30019;50.576;8.568;2023-04-24T02:55:49;9.80;99.90
44305;DHT22;30019;50.576;8.568;2023-04-24T02:58:14;9.80;99.90
44305;DHT22;30019;50.576;8.568;2023-04-24T03:00:40;9.80;99.90
44305;DHT22;30019;50.576;8.568;2023-04-24T03:03:05;9.80;99.90
44305;DHT22;30019;50.576;8.568;2023-04-24T03:05:32;9.70;99.90
44305;DHT22;30019;50.576;8.568;2023-04-24T03:07:57;9.70;99.90
44305;DHT22;30019;50.576;8.568;2023-04-24T03:10:23;9.70;99.90
44305;DHT22;30019;50.576;8.568;2023-04-24T03:12:49;9.70;99.90
44305;DHT22;30019;50.576;8.568;2023-04-24T03:15:14;9.80;99.90
44305;DHT22;30019;50.576;8.568;2023-04-24T03:17:40;9.70;99.90
44305;DHT22;30019;50.576;8.568;2023-04-24T03:20:07;9.70;99.90
44305;DHT22;30019;50.576;8.568;2023-04-24T03:22:33;9.80;99.90
44305;DHT22;30019;50.576;8.568;2023-04-24T03:24:59;9.80;99.90
44305;DHT22;30019;50.576;8.568;2023-04-24T03:27:25;9.80;99.90
44305;DHT22;30019;50.576;8.568;2023-04-24T03:29:50;9.80;99.90
44305;DHT22;30019;50.576;8.568;2023-04-24T03:32:23;9.80;99.90
44305;DHT22;30019;50.576;8.568;2023-04-24T03:34:49;9.80;99.90
44305;DHT22;30019;50.576;8.568;2023-04-24T03:37:16;9.80;99.90
44305;DHT22;30019;50.576;8.568;2023-04-24T03:39:42;9.80;99.90
44305;DHT22;30019;50.576;8.568;2023-04-24T03:42:07;9.90;99.90
44305;DHT22;30019;50.576;8.568;2023-04-24T03:44:34;9.90;99.90
44305;DHT22;30019;50.576;8.568;2023-04-24T03:47:00;9.90;99.90
44305;DHT22;30019;50.576;8.568;2023-04-24T03:49:25;9.90;99.90
44305;DHT22;30019;50.576;8.568;2023-04-24T03:51:51;9.90;99.90
44305;DHT22;30019;50.576;8.568;2023-04-24T03:54:18;9.90;99.90
44305;DHT22;30019;50.576;8.568;2023-04-24T03:56:43;9.90;99.90
44305;DHT22;30019;50.576;8.568;2023-04-24T03:59:09;9.80;99.90
44305;DHT22;30019;50.576;8.568;2023-04-24T04:01:35;9.80;99.90
44305;DHT22;30019;50.576;8.568;2023-04-24T04:04:08;9.70;99.90
44305;DHT22;30019;50.576;8.568;2023-04-24T04:06:34;9.70;99.90
44305;DHT22;30019;50.576;8.568;2023-04-24T04:09:00;9.70;99.90
44305;DHT22;30019;50.576;8.568;2023-04-24T04:11:26;9.60;99.90
44305;DHT22;30019;50.576;8.568;2023-04-24T04:13:51;9.60;99.90
44305;DHT22;30019;50.576;8.568;2023-04-24T04:16:17;9.60;99.90
44305;DHT22;30019;50.576;8.568;2023-04-24T04:18:43;9.60;99.90
44305;DHT22;30019;50.576;8.568;2023-04-24T04:21:09;9.50;99.90
44305;DHT22;30019;50.576;8.568;2023-04-24T04:23:35;9.40;99.90
44305;DHT22;30019;50.576;8.568;2023-04-24T04:26:01;9.40;99.90
44305;DHT22;30019;50.576;8.568;2023-04-24T04:28:27;9.40;99.90
44305;DHT22;30019;50.576;8.568;2023-04-24T04:30:53;9.30;99.90
44305;DHT22;30019;50.576;8.568;2023-04-24T04:33:25;9.40;99.90
44305;DHT22;30019;50.576;8.568;2023-04-24T04:35:51;9.30;99.90
44305;DHT22;30019;50.576;8.568;2023-04-24T04:38:18;9.30;99.90
44305;DHT22;30019;50.576;8.568;2023-04-24T04:40:44;9.30;99.90
44305;DHT22;30019;50.576;8.568;2023-04-24T04:43:10;9.30;99.90
44305;DHT22;30019;50.576;8.568;2023-04-24T04:45:37;9.20;99.90
44305;DHT22;30019;50.576;8.568;2023-04-24T04:48:04;9.20;99.90
44305;DHT22;30019;50.576;8.568;2023-04-24T04:50:29;9.20;99.90
44305;DHT22;30019;50.576;8.568;2023-04-24T04:52:55;9.10;99.90
44305;DHT22;30019;50.576;8.568;2023-04-24T04:55:21;9.10;99.90
44305;DHT22;30019;50.576;8.568;2023-04-24T04:57:47;9.00;99.90
44305;DHT22;30019;50.576;8.568;2023-04-24T05:00:13;9.00;99.90
44305;DHT22;30019;50.576;8.568;2023-04-24T05:02:39;9.10;99.90
44305;DHT22;30019;50.576;8.568;2023-04-24T05:05:05;9.10;99.90
44305;DHT22;30019;50.576;8.568;2023-04-24T05:07:31;9.00;99.90
44305;DHT22;30019;50.576;8.568;2023-04-24T05:09:57;9.00;99.90
44305;DHT22;30019;50.576;8.568;2023-04-24T05:12:22;8.90;99.90
44305;DHT22;30019;50.576;8.568;2023-04-24T05:14:48;8.90;99.90
44305;DHT22;30019;50.576;8.568;2023-04-24T05:17:13;8.90;99.90
44305;DHT22;30019;50.576;8.568;2023-04-24T05:19:39;8.90;99.90
44305;DHT22;30019;50.576;8.568;2023-04-24T05:22:04;8.90;99.90
44305;DHT22;30019;50.576;8.568;2023-04-24T05:24:33;8.90;99.90
44305;DHT22;30019;50.576;8.568;2023-04-24T05:26:59;8.90;99.90
44305;DHT22;30019;50.576;8.568;2023-04-24T05:29:25;9.00;99.90
44305;DHT22;30019;50.576;8.568;2023-04-24T05:31:51;8.90;99.90
44305;DHT22;30019;50.576;8.568;2023-04-24T05:34:17;9.00;99.90
44305;DHT22;30019;50.576;8.568;2023-04-24T05:36:43;9.00;99.90
44305;DHT22;30019;50.576;8.568;2023-04-24T05:39:09;9.00;99.90
44305;DHT22;30019;50.576;8.568;2023-04-24T05:41:34;9.00;99.90
44305;DHT22;30019;50.576;8.568;2023-04-24T05:44:00;9.00;99.90
44305;DHT22;30019;50.576;8.568;2023-04-24T05:46:26;9.10;99.90
44305;DHT22;30019;50.576;8.568;2023-04-24T05:48:51;9.10;99.90
44305;DHT22;30019;50.576;8.568;2023-04-24T05:51:17;9.10;99.90
44305;DHT22;30019;50.576;8.568;2023-04-24T05:53:42;9.10;99.90
44305;DHT22;30019;50.576;8.568;2023-04-24T05:56:08;9.20;99.90
44305;DHT22;30019;50.576;8.568;2023-04-24T05:58:34;9.10;99.90
44305;DHT22;30019;50.576;8.568;2023-04-24T06:00:59;9.10;99.90
44305;DHT22;30019;50.576;8.568;2023-04-24T06:03:27;9.20;99.90
44305;DHT22;30019;50.576;8.568;2023-04-24T06:05:53;9.20;99.90
44305;DHT22;30019;50.576;8.568;2023-04-24T06:08:19;9.20;99.90
44305;DHT22;30019;50.576;8.568;2023-04-24T06:10:45;9.30;99.90
44305;DHT22;30019;50.576;8.568;2023-04-24T06:13:11;9.40;99.90
44305;DHT22;30019;50.576;8.568;2023-04-24T06:15:37;9.40;99.90
44305;DHT22;30019;50.576;8.568;2023-04-24T06:18:03;9.40;99.90
44305;DHT22;30019;50.576;8.568;2023-04-24T06:20:29;9.30;99.90
44305;DHT22;30019;50.576;8.568;2023-04-24T06:22:54;9.30;99.90
44305;DHT22;30019;50.576;8.568;2023-04-24T06:25:20;9.30;99.90
44305;DHT22;30019;50.576;8.568;2023-04-24T06:27:46;9.40;99.90
44305;DHT22;30019;50.576;8.568;2023-04-24T06:30:12;9.40;99.90
44305;DHT22;30019;50.576;8.568;2023-04-24T06:32:37;9.50;99.90
44305;DHT22;30019;50.576;8.568;2023-04-24T06:35:03;9.50;99.90
44305;DHT22;30019;50.576;8.568;2023-04-24T06:37:29;9.60;99.90
44305;DHT22;30019;50.576;8.568;2023-04-24T06:39:55;9.60;99.90
44305;DHT22;30019;50.576;8.568;2023-04-24T06:42:20;9.70;99.90
44305;DHT22;30019;50.576;8.568;2023-04-24T06:44:47;9.70;99.90
44305;DHT22;30019;50.576;8.568;2023-04-24T06:47:13;9.70;99.90
44305;DHT22;30019;50.576;8.568;2023-04-24T06:49:39;9.80;99.90
44305;DHT22;30019;50.576;8.568;2023-04-24T06:52:05;9.80;99.90
44305;DHT22;30019;50.576;8.568;2023-04-24T06:54:32;9.80;99.90
44305;DHT22;30019;50.576;8.568;2023-04-24T06:56:58;10.00;99.90
44305;DHT22;30019;50.576;8.568;2023-04-24T06:59:24;10.30;99.90
44305;DHT22;30019;50.576;8.568;2023-04-24T07:01:50;10.50;99.90
44305;DHT22;30019;50.576;8.568;2023-04-24T07:04:18;10.50;99.90
44305;DHT22;30019;50.576;8.568;2023-04-24T07:06:47;10.40;99.90
44305;DHT22;30019;50.576;8.568;2023-04-24T07:09:14;10.40;99.90
44305;DHT22;30019;50.576;8.568;2023-04-24T07:11:41;10.60;99.90
44305;DHT22;30019;50.576;8.568;2023-04-24T07:14:07;10.70;99.90
44305;DHT22;30019;50.576;8.568;2023-04-24T07:16:33;11.00;99.90
44305;DHT22;30019;50.576;8.568;2023-04-24T07:21:27;11.30;99.90
44305;DHT22;30019;50.576;8.568;2023-04-24T07:23:53;11.10;99.90
44305;DHT22;30019;50.576;8.568;2023-04-24T07:26:20;10.90;99.90
44305;DHT22;30019;50.576;8.568;2023-04-24T07:28:46;10.90;99.90
44305;DHT22;30019;50.576;8.568;2023-04-24T07:31:12;10.90;99.90
44305;DHT22;30019;50.576;8.568;2023-04-24T07:33:38;11.20;99.90
44305;DHT22;30019;50.576;8.568;2023-04-24T07:36:04;11.40;99.90
44305;DHT22;30019;50.576;8.568;2023-04-24T07:38:30;11.40;99.90
44305;DHT22;30019;50.576;8.568;2023-04-24T07:40:55;11.20;99.90
44305;DHT22;30019;50.576;8.568;2023-04-24T07:43:21;11.10;99.90
44305;DHT22;30019;50.576;8.568;2023-04-24T07:45:49;11.20;99.90
44305;DHT22;30019;50.576;8.568;2023-04-24T07:48:15;11.30;99.90
44305;DHT22;30019;50.576;8.568;2023-04-24T07:50:42;11.30;99.90
44305;DHT22;30019;50.576;8.568;2023-04-24T07:53:07;11.60;99.90
44305;DHT22;30019;50.576;8.568;2023-04-24T07:55:33;11.60;99.90
44305;DHT22;30019;50.576;8.568;2023-04-24T07:57:59;12.00;99.90
44305;DHT22;30019;50.576;8.568;2023-04-24T08:00:24;12.10;99.90
44305;DHT22;30019;50.576;8.568;2023-04-24T08:02:50;11.80;99.90
44305;DHT22;30019;50.576;8.568;2023-04-24T08:05:16;12.20;99.90
44305;DHT22;30019;50.576;8.568;2023-04-24T08:07:42;12.50;99.90
44305;DHT22;30019;50.576;8.568;2023-04-24T08:10:10;12.90;99.90
44305;DHT22;30019;50.576;8.568;2023-04-24T08:12:37;12.60;99.90
44305;DHT22;30019;50.576;8.568;2023-04-24T08:15:03;12.70;99.90
44305;DHT22;30019;50.576;8.568;2023-04-24T08:17:28;12.50;99.90
44305;DHT22;30019;50.576;8.568;2023-04-24T08:19:54;12.30;99.90
44305;DHT22;30019;50.576;8.568;2023-04-24T08:22:27;12.30;99.90
44305;DHT22;30019;50.576;8.568;2023-04-24T08:24:52;12.90;99.90
44305;DHT22;30019;50.576;8.568;2023-04-24T08:27:18;12.50;99.90
44305;DHT22;30019;50.576;8.568;2023-04-24T08:29:44;12.20;99.90
44305;DHT22;30019;50.576;8.568;2023-04-24T08:32:10;11.70;99.90
44305;DHT22;30019;50.576;8.568;2023-04-24T08:34:35;11.50;99.90
44305;DHT22;30019;50.576;8.568;2023-04-24T08:37:01;11.60;99.90
44305;DHT22;30019;50.576;8.568;2023-04-24T08:39:27;11.50;99.90
44305;DHT22;30019;50.576;8.568;2023-04-24T08:41:53;11.20;99.90
44305;DHT22;30019;50.576;8.568;2023-04-24T08:44:19;11.10;99.90
44305;DHT22;30019;50.576;8.568;2023-04-24T08:46:45;11.20;99.90
44305;DHT22;30019;50.576;8.568;2023-04-24T08:49:14;11.10;99.90
44305;DHT22;30019;50.576;8.568;2023-04-24T08:51:41;11.10;99.90
44305;DHT22;30019;50.576;8.568;2023-04-24T08:54:08;11.00;99.90
44305;DHT22;30019;50.576;8.568;2023-04-24T08:56:36;10.90;99.90
44305;DHT22;30019;50.576;8.568;2023-04-24T08:59:08;11.00;99.90
44305;DHT22;30019;50.576;8.568;2023-04-24T09:01:34;10.90;99.90
44305;DHT22;30019;50.576;8.568;2023-04-24T09:04:03;11.10;99.90
44305;DHT22;30019;50.576;8.568;2023-04-24T09:06:30;11.30;99.90
44305;DHT22;30019;50.576;8.568;2023-04-24T09:09:01;11.50;99.90
44305;DHT22;30019;50.576;8.568;2023-04-24T09:11:32;11.60;99.90
44305;DHT22;30019;50.576;8.568;2023-04-24T09:14:01;11.40;99.90
44305;DHT22;30019;50.576;8.568;2023-04-24T09:16:27;11.60;99.90
44305;DHT22;30019;50.576;8.568;2023-04-24T09:18:53;11.40;99.90
44305;DHT22;30019;50.576;8.568;2023-04-24T09:21:21;11.40;99.90
44305;DHT22;30019;50.576;8.568;2023-04-24T09:23:57;11.30;99.90
44305;DHT22;30019;50.576;8.568;2023-04-24T09:26:23;11.60;99.90
44305;DHT22;30019;50.576;8.568;2023-04-24T09:28:49;12.00;99.90
44305;DHT22;30019;50.576;8.568;2023-04-24T09:31:18;12.30;99.90
44305;DHT22;30019;50.576;8.568;2023-04-24T09:34:01;12.50;99.90
44305;DHT22;30019;50.576;8.568;2023-04-24T09:36:40;12.80;99.90
44305;DHT22;30019;50.576;8.568;2023-04-24T09:39:08;12.80;99.90
44305;DHT22;30019;50.576;8.568;2023-04-24T09:41:35;12.40;99.90
44305;DHT22;30019;50.576;8.568;2023-04-24T09:44:18;12.10;99.90
44305;DHT22;30019;50.576;8.568;2023-04-24T09:46:50;11.80;99.90
44305;DHT22;30019;50.576;8.568;2023-04-24T09:49:20;11.60;99.90
44305;DHT22;30019;50.576;8.568;2023-04-24T09:51:45;11.30;99.90
44305;DHT22;30019;50.576;8.568;2023-04-24T09:54:23;10.70;99.90
44305;DHT22;30019;50.576;8.568;2023-04-24T09:56:51;10.40;99.90
44305;DHT22;30019;50.576;8.568;2023-04-24T09:59:18;10.30;99.90
44305;DHT22;30019;50.576;8.568;2023-04-24T10:01:44;10.30;99.90
44305;DHT22;30019;50.576;8.568;2023-04-24T10:06:47;10.30;99.90
44305;DHT22;30019;50.576;8.568;2023-04-24T10:09:15;10.30;99.90
44305;DHT22;30019;50.576;8.568;2023-04-24T10:11:42;10.20;99.90
44305;DHT22;30019;50.576;8.568;2023-04-24T10:14:12;10.20;99.90
44305;DHT22;30019;50.576;8.568;2023-04-24T10:16:39;10.30;99.90
44305;DHT22;30019;50.576;8.568;2023-04-24T10:19:06;10.60;99.90
44305;DHT22;30019;50.576;8.568;2023-04-24T10:21:32;10.70;99.90
44305;DHT22;30019;50.576;8.568;2023-04-24T10:23:59;10.90;99.90
44305;DHT22;30019;50.576;8.568;2023-04-24T10:26:26;11.40;99.90
44305;DHT22;30019;50.576;8.568;2023-04-24T10:28:54;11.60;99.90
44305;DHT22;30019;50.576;8.568;2023-04-24T10:31:20;11.50;99.90
44305;DHT22;30019;50.576;8.568;2023-04-24T10:33:46;11.40;99.90
44305;DHT22;30019;50.576;8.568;2023-04-24T10:36:14;11.60;99.90
44305;DHT22;30019;50.576;8.568;2023-04-24T10:38:43;11.90;99.90
44305;DHT22;30019;50.576;8.568;2023-04-24T10:41:12;12.30;99.90
44305;DHT22;30019;50.576;8.568;2023-04-24T10:44:10;13.20;99.90
44305;DHT22;30019;50.576;8.568;2023-04-24T10:46:37;13.50;99.90
44305;DHT22;30019;50.576;8.568;2023-04-24T10:49:06;13.10;99.90
44305;DHT22;30019;50.576;8.568;2023-04-24T10:51:45;12.80;99.90
44305;DHT22;30019;50.576;8.568;2023-04-24T10:54:27;12.20;99.90
44305;DHT22;30019;50.576;8.568;2023-04-24T10:59:46;11.60;99.90
44305;DHT22;30019;50.576;8.568;2023-04-24T11:02:14;11.50;99.90
44305;DHT22;30019;50.576;8.568;2023-04-24T11:04:43;11.10;99.90
44305;DHT22;30019;50.576;8.568;2023-04-24T11:07:10;10.80;99.90
44305;DHT22;30019;50.576;8.568;2023-04-24T11:09:36;10.70;99.90
44305;DHT22;30019;50.576;8.568;2023-04-24T11:12:07;10.90;99.90
44305;DHT22;30019;50.576;8.568;2023-04-24T11:17:38;11.10;99.90
44305;DHT22;30019;50.576;8.568;2023-04-24T11:20:10;11.10;99.90
44305;DHT22;30019;50.576;8.568;2023-04-24T11:22:37;10.80;99.90
44305;DHT22;30019;50.576;8.568;2023-04-24T11:25:05;11.10;99.90
44305;DHT22;30019;50.576;8.568;2023-04-24T11:27:39;11.40;99.90
44305;DHT22;30019;50.576;8.568;2023-04-24T11:30:05;11.40;99.90
44305;DHT22;30019;50.576;8.568;2023-04-24T11:32:39;11.30;99.90
44305;DHT22;30019;50.576;8.568;2023-04-24T11:35:19;11.20;99.90
44305;DHT22;30019;50.576;8.568;2023-04-24T11:37:52;11.30;99.90
44305;DHT22;30019;50.576;8.568;2023-04-24T11:40:19;11.40;99.90
44305;DHT22;30019;50.576;8.568;2023-04-24T11:42:50;11.30;99.90
44305;DHT22;30019;50.576;8.568;2023-04-24T11:45:24;11.10;99.90
44305;DHT22;30019;50.576;8.568;2023-04-24T11:47:50;11.20;99.90
44305;DHT22;30019;50.576;8.568;2023-04-24T11:50:19;11.20;99.90
44305;DHT22;30019;50.576;8.568;2023-04-24T11:52:54;11.00;99.90
44305;DHT22;30019;50.576;8.568;2023-04-24T11:57:48;10.00;99.90
44305;DHT22;30019;50.576;8.568;2023-04-24T12:00:16;9.90;99.90
44305;DHT22;30019;50.576;8.568;2023-04-24T12:02:42;9.90;99.90
44305;DHT22;30019;50.576;8.568;2023-04-24T12:05:08;9.80;99.90
44305;DHT22;30019;50.576;8.568;2023-04-24T12:07:41;9.80;99.90
44305;DHT22;30019;50.576;8.568;2023-04-24T12:10:10;9.70;99.90
44305;DHT22;30019;50.576;8.568;2023-04-24T12:12:35;9.80;99.90
44305;DHT22;30019;50.576;8.568;2023-04-24T12:15:05;9.80;99.90
44305;DHT22;30019;50.576;8.568;2023-04-24T12:17:32;10.00;99.90
44305;DHT22;30019;50.576;8.568;2023-04-24T12:20:03;10.20;99.90
44305;DHT22;30019;50.576;8.568;2023-04-24T12:22:51;10.70;99.90
44305;DHT22;30019;50.576;8.568;2023-04-24T12:25:21;10.90;99.90
44305;DHT22;30019;50.576;8.568;2023-04-24T12:27:57;10.90;99.90
44305;DHT22;30019;50.576;8.568;2023-04-24T12:30:43;10.80;99.90
44305;DHT22;30019;50.576;8.568;2023-04-24T12:33:20;10.90;99.90
44305;DHT22;30019;50.576;8.568;2023-04-24T12:35:47;11.00;99.90
44305;DHT22;30019;50.576;8.568;2023-04-24T12:38:13;11.00;99.90
44305;DHT22;30019;50.576;8.568;2023-04-24T12:40:40;10.80;99.90
44305;DHT22;30019;50.576;8.568;2023-04-24T12:43:17;10.70;99.90
44305;DHT22;30019;50.576;8.568;2023-04-24T12:45:43;10.90;99.90
44305;DHT22;30019;50.576;8.568;2023-04-24T12:48:10;11.10;99.90
44305;DHT22;30019;50.576;8.568;2023-04-24T12:50:36;11.10;99.90
44305;DHT22;30019;50.576;8.568;2023-04-24T12:53:01;11.30;99.90
44305;DHT22;30019;50.576;8.568;2023-04-24T12:55:27;11.40;99.90
44305;DHT22;30019;50.576;8.568;2023-04-24T12:57:53;11.60;99.90
44305;DHT22;30019;50.576;8.568;2023-04-24T13:00:20;11.80;99.90
44305;DHT22;30019;50.576;8.568;2023-04-24T13:02:46;11.50;99.90
44305;DHT22;30019;50.576;8.568;2023-04-24T13:05:12;11.30;99.90
44305;DHT22;30019;50.576;8.568;2023-04-24T13:07:39;11.10;99.90
44305;DHT22;30019;50.576;8.568;2023-04-24T13:10:05;11.10;99.90
44305;DHT22;30019;50.576;8.568;2023-04-24T13:12:31;11.10;99.90
44305;DHT22;30019;50.576;8.568;2023-04-24T13:14:57;11.10;99.90
44305;DHT22;30019;50.576;8.568;2023-04-24T13:17:23;11.10;99.90
44305;DHT22;30019;50.576;8.568;2023-04-24T13:19:50;11.10;99.90
44305;DHT22;30019;50.576;8.568;2023-04-24T13:22:16;11.00;99.90
44305;DHT22;30019;50.576;8.568;2023-04-24T13:24:44;11.20;99.90
44305;DHT22;30019;50.576;8.568;2023-04-24T13:27:10;11.10;99.90
44305;DHT22;30019;50.576;8.568;2023-04-24T13:29:37;11.00;99.90
44305;DHT22;30019;50.576;8.568;2023-04-24T13:32:03;10.80;99.90
44305;DHT22;30019;50.576;8.568;2023-04-24T13:34:28;10.70;99.90
44305;DHT22;30019;50.576;8.568;2023-04-24T13:36:55;10.70;99.90
44305;DHT22;30019;50.576;8.568;2023-04-24T13:39:22;10.70;99.90
44305;DHT22;30019;50.576;8.568;2023-04-24T13:41:48;10.60;99.90
44305;DHT22;30019;50.576;8.568;2023-04-24T13:44:15;10.80;99.90
44305;DHT22;30019;50.576;8.568;2023-04-24T13:46:42;11.00;99.90
44305;DHT22;30019;50.576;8.568;2023-04-24T13:49:10;11.10;99.90
44305;DHT22;30019;50.576;8.568;2023-04-24T13:51:35;11.50;99.90
44305;DHT22;30019;50.576;8.568;2023-04-24T13:54:01;11.70;99.90
44305;DHT22;30019;50.576;8.568;2023-04-24T13:56:27;11.40;99.90
44305;DHT22;30019;50.576;8.568;2023-04-24T13:58:52;11.10;99.90
44305;DHT22;30019;50.576;8.568;2023-04-24T14:01:19;10.80;99.90
44305;DHT22;30019;50.576;8.568;2023-04-24T14:03:46;10.50;99.90
44305;DHT22;30019;50.576;8.568;2023-04-24T14:06:12;10.50;99.90
44305;DHT22;30019;50.576;8.568;2023-04-24T14:08:38;10.90;99.90
44305;DHT22;30019;50.576;8.568;2023-04-24T14:11:04;11.00;99.90
44305;DHT22;30019;50.576;8.568;2023-04-24T14:13:29;11.30;99.90
44305;DHT22;30019;50.576;8.568;2023-04-24T14:15:55;11.80;99.90
44305;DHT22;30019;50.576;8.568;2023-04-24T14:18:21;12.00;99.90
44305;DHT22;30019;50.576;8.568;2023-04-24T14:20:46;12.00;99.90
44305;DHT22;30019;50.576;8.568;2023-04-24T14:23:12;11.90;99.90
44305;DHT22;30019;50.576;8.568;2023-04-24T14:25:37;11.90;99.90
44305;DHT22;30019;50.576;8.568;2023-04-24T14:28:03;12.20;99.90
44305;DHT22;30019;50.576;8.568;2023-04-24T14:30:29;12.20;99.90
44305;DHT22;30019;50.576;8.568;2023-04-24T14:32:54;12.20;99.90
44305;DHT22;30019;50.576;8.568;2023-04-24T14:35:20;12.10;99.90
44305;DHT22;30019;50.576;8.568;2023-04-24T14:37:45;11.90;99.90
44305;DHT22;30019;50.576;8.568;2023-04-24T14:40:11;11.90;99.90
44305;DHT22;30019;50.576;8.568;2023-04-24T14:42:37;11.80;99.90
44305;DHT22;30019;50.576;8.568;2023-04-24T14:45:03;11.80;99.90
44305;DHT22;30019;50.576;8.568;2023-04-24T14:47:29;11.90;99.90
44305;DHT22;30019;50.576;8.568;2023-04-24T14:49:54;11.80;99.90
44305;DHT22;30019;50.576;8.568;2023-04-24T14:52:20;11.70;99.90
44305;DHT22;30019;50.576;8.568;2023-04-24T14:54:46;11.60;99.90
44305;DHT22;30019;50.576;8.568;2023-04-24T14:57:12;11.50;99.90
44305;DHT22;30019;50.576;8.568;2023-04-24T14:59:37;11.50;99.90
44305;DHT22;30019;50.576;8.568;2023-04-24T15:02:03;11.60;99.90
44305;DHT22;30019;50.576;8.568;2023-04-24T15:04:29;11.60;99.90
44305;DHT22;30019;50.576;8.568;2023-04-24T15:06:56;11.60;99.90
44305;DHT22;30019;50.576;8.568;2023-04-24T15:09:22;11.40;99.90
44305;DHT22;30019;50.576;8.568;2023-04-24T15:11:49;10.90;99.90
44305;DHT22;30019;50.576;8.568;2023-04-24T15:14:18;10.40;99.90
44305;DHT22;30019;50.576;8.568;2023-04-24T15:16:44;10.20;99.90
44305;DHT22;30019;50.576;8.568;2023-04-24T15:19:10;10.20;99.90
44305;DHT22;30019;50.576;8.568;2023-04-24T15:21:36;10.10;99.90
44305;DHT22;30019;50.576;8.568;2023-04-24T15:24:02;10.20;99.90
44305;DHT22;30019;50.576;8.568;2023-04-24T15:26:28;10.30;99.90
44305;DHT22;30019;50.576;8.568;2023-04-24T15:28:54;10.40;99.90
44305;DHT22;30019;50.576;8.568;2023-04-24T15:31:20;10.50;99.90
44305;DHT22;30019;50.576;8.568;2023-04-24T15:33:48;10.60;99.90
44305;DHT22;30019;50.576;8.568;2023-04-24T15:36:15;10.90;99.90
44305;DHT22;30019;50.576;8.568;2023-04-24T15:38:41;11.50;99.90
44305;DHT22;30019;50.576;8.568;2023-04-24T15:41:07;11.70;99.90
44305;DHT22;30019;50.576;8.568;2023-04-24T15:43:33;11.70;99.90
44305;DHT22;30019;50.576;8.568;2023-04-24T15:46:00;11.70;99.90